Terminal Aerodrome Forecast
Issued by NWS

Home | Current Version | Previous Version | Text Only | Print | Product List | Glossary On
Versions: 1 2 3 4 5 6 7 8 9 10 11 12 13 14
507
FTUS42 KTAE 131120
TAFECP
TAF
KECP 131120Z 1312/1412 35010KT P6SM SKC
      TEMPO 1312/1316 36012G22KT
     FM132300 02004KT P6SM SKC=

USA.gov is the U.S. government's official web portal to all federal, state and local government web resources and services.